Terminal Aerodrome Forecast
Issued by NWS

Home | Current Version | Previous Version | Text Only | Print | Product List | Glossary On
Versions: 1 2 3 4 5 6 7 8 9 10 11 12 13 14 15
000
FTUS44 KLZK 301800 AAB
TAFHRO
TAF AMD
KHRO 301815Z 3018/3118 VRB05KT P6SM VCSH SCT025 OVC035
      TEMPO 3018/3022 1/2SM SHRA FG BKN010
     FM302200 VRB03KT 5SM -SHRA BR SCT015 BKN025 OVC035
      TEMPO 3107/3111 1SM SHRA BR OVC015
     FM311200 15005KT P6SM VCSH SCT012 BKN020 PROB30 3112/3118 5SM
      -SHRA BR BKN012=

USA.gov is the U.S. government's official web portal to all federal, state and local government web resources and services.